Time;durP1;ratioP1;P1;durP2;ratioP2;P2;SDS_P1;SDS_P2;PMS_P1;PMS_P2;Temp;Humidity;BMP_temperature;BMP_pressure;BME280_temperature;BME280_humidity;BME280_pressure;Samples;Min_cycle;Max_cycle;Signal;HPM_P1;HPM_P2
2022/01/05 00:00:27;;;;;;;3.97;1.92;;;;;;;6.70;67.63;99600.53;5060530;28;20073;-81
2022/01/05 00:02:52;;;;;;;6.20;1.67;;;;;;;7.08;68.27;99592.69;5045643;28;20083;-81
2022/01/05 00:05:18;;;;;;;5.25;1.30;;;;;;;7.10;66.12;99592.69;5043153;28;20040;-81
2022/01/05 00:07:46;;;;;;;4.40;1.70;;;;;;;7.17;65.91;99601.13;5062984;28;20035;-81
2022/01/05 00:10:12;;;;;;;3.20;1.00;;;;;;;7.01;66.34;99608.41;5045542;28;20607;-81
2022/01/05 00:12:38;;;;;;;6.22;1.65;;;;;;;6.48;67.68;99622.59;5069180;28;20043;-81
2022/01/05 00:15:04;;;;;;;1.92;1.20;;;;;;;6.42;66.38;99633.00;5066810;28;20032;-81
2022/01/05 00:17:29;;;;;;;1.73;0.93;;;;;;;6.49;67.27;99637.16;5070412;28;20047;-81
2022/01/05 00:19:55;;;;;;;3.80;0.95;;;;;;;6.57;66.24;99649.00;5050469;28;20032;-81
2022/01/05 00:22:21;;;;;;;1.55;0.80;;;;;;;6.31;68.38;99650.41;5069108;28;20497;-81
2022/01/05 00:25:12;;;;;;;3.65;0.70;;;;;;;6.27;68.00;99651.38;5064156;28;20539;-81
2022/01/05 00:27:37;;;;;;;1.83;0.75;;;;;;;6.16;68.66;99653.34;5067760;28;20379;-81
2022/01/05 00:30:03;;;;;;;4.05;1.10;;;;;;;5.99;70.50;99648.53;5065021;28;20043;-81
2022/01/05 00:32:29;;;;;;;3.00;1.00;;;;;;;6.20;67.92;99647.22;5063473;28;20032;-81
2022/01/05 00:34:54;;;;;;;1.52;0.77;;;;;;;5.72;68.22;99647.34;5065650;28;20028;-81
2022/01/05 00:37:20;;;;;;;1.67;0.90;;;;;;;5.64;70.85;99656.09;5066297;28;20460;-81
2022/01/05 00:39:46;;;;;;;1.50;1.00;;;;;;;5.85;70.39;99653.13;5066271;28;20047;-81
2022/01/05 00:42:11;;;;;;;1.80;1.20;;;;;;;5.51;72.15;99652.88;5067420;28;20048;-81
2022/01/05 00:44:36;;;;;;;4.35;1.00;;;;;;;5.95;69.78;99652.06;5046776;28;20390;-80
2022/01/05 00:47:31;;;;;;;3.25;0.82;;;;;;;5.86;72.31;99662.56;5068975;28;20363;-81
2022/01/05 00:49:56;;;;;;;3.75;0.77;;;;;;;5.44;70.96;99670.16;5061945;28;20509;-81
2022/01/05 00:52:22;;;;;;;4.65;1.10;;;;;;;6.02;68.56;99667.34;5062092;28;20040;-81
2022/01/05 00:54:47;;;;;;;4.28;0.90;;;;;;;5.98;71.56;99663.13;5047467;28;20052;-81
2022/01/05 00:57:13;;;;;;;1.85;0.90;;;;;;;6.01;71.52;99673.38;5061600;28;20037;-81
2022/01/05 00:59:38;;;;;;;2.67;0.90;;;;;;;6.16;72.66;99674.81;5047133;28;20040;-81
2022/01/05 01:02:04;;;;;;;1.80;0.80;;;;;;;5.88;70.19;99695.13;5045801;28;20032;-81
2022/01/05 01:04:30;;;;;;;4.97;1.08;;;;;;;5.81;69.86;99688.38;5060987;28;20064;-81
2022/01/05 01:06:55;;;;;;;2.28;1.30;;;;;;;5.67;70.89;99694.69;5047737;28;20049;-81
2022/01/05 01:09:21;;;;;;;2.28;1.48;;;;;;;5.77;70.45;99696.22;5047014;28;20043;-81
2022/01/05 01:11:47;;;;;;;4.85;1.95;;;;;;;5.87;70.54;99692.56;5045807;28;20036;-81
2022/01/05 01:14:12;;;;;;;4.93;1.80;;;;;;;5.76;72.47;99702.25;5065711;28;20516;-80
2022/01/05 01:16:38;;;;;;;3.45;1.25;;;;;;;5.55;72.66;99705.19;5059784;28;20025;-81
2022/01/05 01:19:03;;;;;;;3.80;1.20;;;;;;;5.70;70.96;99697.19;5062965;28;20167;-81
2022/01/05 01:21:29;;;;;;;4.15;1.30;;;;;;;5.55;68.62;99706.06;5063289;28;20436;-81
2022/01/05 01:23:55;;;;;;;3.05;1.27;;;;;;;5.43;70.51;99711.41;5063957;28;20044;-81
2022/01/05 01:26:26;;;;;;;4.63;1.40;;;;;;;5.33;71.50;99721.00;5063676;28;20081;-81
2022/01/05 01:28:52;;;;;;;2.67;1.30;;;;;;;5.91;69.80;99714.84;5062517;28;20020;-81
2022/01/05 01:31:18;;;;;;;1.70;1.00;;;;;;;5.67;69.00;99716.16;5066248;28;20047;-81
2022/01/05 01:33:44;;;;;;;1.60;1.20;;;;;;;5.65;71.16;99701.59;5062599;28;20571;-81
2022/01/05 01:36:10;;;;;;;1.38;1.10;;;;;;;5.73;70.42;99699.72;5063827;28;20101;-81
2022/01/05 01:38:35;;;;;;;1.73;1.30;;;;;;;5.74;72.16;99709.97;5058521;28;20047;-81
2022/01/05 01:41:01;;;;;;;4.03;1.77;;;;;;;5.97;69.33;99713.00;5065329;28;20078;-81
2022/01/05 01:43:26;;;;;;;2.08;1.15;;;;;;;6.00;69.31;99712.94;5063740;28;20041;-81
2022/01/05 01:45:51;;;;;;;3.15;1.42;;;;;;;5.86;70.33;99714.09;5064529;28;20040;-81
2022/01/05 01:48:17;;;;;;;1.83;1.52;;;;;;;6.11;73.13;99714.44;5066908;28;20427;-81
2022/01/05 01:50:42;;;;;;;3.83;1.88;;;;;;;6.16;69.41;99718.63;5062419;28;20037;-81
2022/01/05 01:53:08;;;;;;;3.22;1.13;;;;;;;6.07;69.58;99711.06;5067420;28;20532;-81
2022/01/05 01:55:35;;;;;;;1.92;1.23;;;;;;;6.40;69.18;99702.66;5058268;28;20576;-81
2022/01/05 01:58:01;;;;;;;5.03;1.50;;;;;;;6.20;69.34;99702.25;5060963;28;20029;-81
2022/01/05 02:00:29;;;;;;;3.08;1.08;;;;;;;6.31;69.25;99700.28;5065424;28;20064;-81
2022/01/05 02:02:55;;;;;;;2.90;0.90;;;;;;;6.43;67.96;99710.34;5062977;28;20039;-81
2022/01/05 02:05:21;;;;;;;2.78;0.95;;;;;;;6.29;67.41;99714.94;5063214;28;20040;-81
2022/01/05 02:07:46;;;;;;;2.00;1.05;;;;;;;6.31;69.88;99727.78;5061485;28;20511;-81
2022/01/05 02:10:12;;;;;;;3.35;1.45;;;;;;;6.58;67.32;99720.38;5063396;28;20498;-81
2022/01/05 02:12:38;;;;;;;6.60;1.38;;;;;;;6.58;67.73;99715.22;5063305;28;20116;-81
2022/01/05 02:15:05;;;;;;;4.63;1.10;;;;;;;6.41;68.21;99714.69;5046385;28;20036;-81
2022/01/05 02:17:44;;;;;;;2.33;1.05;;;;;;;6.31;69.06;99722.63;5047821;28;20496;-81
2022/01/05 02:20:19;;;;;;;2.60;1.17;;;;;;;6.48;69.15;99730.94;5064271;28;20183;-81
2022/01/05 02:22:46;;;;;;;2.08;1.27;;;;;;;6.46;68.25;99723.19;5061393;28;20040;-81
2022/01/05 02:25:12;;;;;;;1.98;1.17;;;;;;;6.52;67.41;99732.56;5046075;28;20040;-81
2022/01/05 02:27:39;;;;;;;5.10;1.60;;;;;;;6.46;69.05;99740.38;5065507;28;20524;-82
2022/01/05 02:30:05;;;;;;;2.28;1.27;;;;;;;6.46;66.04;99736.06;5063291;28;20040;-81
2022/01/05 02:32:31;;;;;;;2.33;0.90;;;;;;;6.08;69.44;99737.72;5039744;28;21382;-81
2022/01/05 02:34:56;;;;;;;5.22;1.17;;;;;;;6.31;69.42;99753.59;5061650;28;20036;-81
2022/01/05 02:37:22;;;;;;;5.65;1.42;;;;;;;6.28;68.20;99751.91;5066084;28;20085;-81
2022/01/05 02:39:47;;;;;;;2.03;1.20;;;;;;;6.30;68.98;99757.91;5059535;28;20050;-81
2022/01/05 02:42:27;;;;;;;2.47;1.35;;;;;;;6.20;67.01;99766.69;5058936;28;20075;-81
2022/01/05 02:44:54;;;;;;;2.95;1.63;;;;;;;6.08;69.34;99781.53;5044834;28;20156;-81
2022/01/05 02:47:20;;;;;;;3.97;1.73;;;;;;;6.19;66.26;99770.16;5058142;28;20040;-81
2022/01/05 02:49:45;;;;;;;2.85;1.75;;;;;;;6.06;68.36;99780.72;5062584;28;20031;-81
2022/01/05 02:52:11;;;;;;;4.88;1.80;;;;;;;6.17;66.90;99786.53;5061870;28;20040;-81
2022/01/05 02:54:37;;;;;;;5.35;2.10;;;;;;;6.05;66.74;99787.63;5061263;28;20595;-81
2022/01/05 02:57:03;;;;;;;4.43;1.73;;;;;;;6.25;64.49;99785.50;5060528;28;20040;-81
2022/01/05 02:59:29;;;;;;;2.88;1.83;;;;;;;6.18;67.03;99793.41;5061741;28;20105;-81
2022/01/05 03:01:54;;;;;;;3.75;2.28;;;;;;;6.32;66.78;99804.31;5058648;28;20040;-79
2022/01/05 03:04:20;;;;;;;4.40;1.58;;;;;;;6.48;65.03;99798.84;5042307;28;20033;-79
2022/01/05 03:06:45;;;;;;;5.32;1.65;;;;;;;6.25;67.16;99807.84;5060810;28;20044;-79
2022/01/05 03:09:11;;;;;;;4.95;1.90;;;;;;;6.08;64.60;99805.59;5043646;28;20047;-79
2022/01/05 03:11:36;;;;;;;6.65;1.85;;;;;;;6.14;66.84;99807.22;5030845;28;20041;-79
2022/01/05 03:14:02;;;;;;;4.43;1.73;;;;;;;6.25;66.75;99813.88;5060055;28;20043;-79
2022/01/05 03:16:28;;;;;;;5.47;1.80;;;;;;;5.97;67.74;99818.69;5064082;28;20042;-79
2022/01/05 03:18:53;;;;;;;4.95;2.05;;;;;;;6.27;65.12;99816.44;5059649;28;20043;-79
2022/01/05 03:21:19;;;;;;;10.13;1.88;;;;;;;6.18;65.18;99820.03;5063790;28;20397;-78
2022/01/05 03:23:46;;;;;;;6.65;1.70;;;;;;;6.21;63.92;99816.56;5060184;28;20082;-79
2022/01/05 03:26:12;;;;;;;6.53;1.80;;;;;;;5.97;67.23;99823.00;5063241;28;20028;-79
2022/01/05 03:28:38;;;;;;;5.53;2.45;;;;;;;6.19;65.77;99819.13;5059734;28;20044;-79
2022/01/05 03:31:03;;;;;;;3.38;1.55;;;;;;;5.87;65.74;99827.44;5062843;28;20033;-79
2022/01/05 03:33:29;;;;;;;4.85;2.00;;;;;;;6.17;65.18;99832.94;5061146;28;20048;-79
2022/01/05 03:35:54;;;;;;;11.63;3.28;;;;;;;6.09;65.60;99837.41;5062683;28;20052;-79
2022/01/05 03:38:20;;;;;;;7.55;1.88;;;;;;;6.18;64.90;99838.09;5057876;28;20025;-79
2022/01/05 03:40:47;;;;;;;5.65;1.77;;;;;;;5.90;64.42;99842.88;5058831;28;20032;-79
2022/01/05 03:43:14;;;;;;;2.45;1.55;;;;;;;6.11;63.96;99846.81;5048602;28;20068;-79
2022/01/05 03:45:41;;;;;;;2.92;2.10;;;;;;;5.96;64.56;99847.91;5063955;28;20040;-79
2022/01/05 03:48:09;;;;;;;4.97;1.98;;;;;;;5.54;66.03;99852.88;5069720;28;20117;-79
2022/01/05 03:50:35;;;;;;;5.60;1.88;;;;;;;5.98;64.61;99855.59;5046813;28;20033;-79
2022/01/05 03:53:01;;;;;;;4.85;2.17;;;;;;;6.06;64.09;99863.22;5067961;28;20032;-78
2022/01/05 03:55:27;;;;;;;6.07;2.08;;;;;;;6.13;64.32;99859.69;5064470;28;20040;-79
2022/01/05 03:57:52;;;;;;;10.60;2.50;;;;;;;5.96;64.70;99859.94;5068193;28;20040;-79
2022/01/05 04:00:18;;;;;;;4.03;1.80;;;;;;;5.86;64.57;99861.00;5070160;28;20047;-79
2022/01/05 04:02:44;;;;;;;5.68;1.70;;;;;;;6.10;64.57;99863.13;5062647;28;20457;-79
2022/01/05 04:05:09;;;;;;;6.05;1.85;;;;;;;5.89;64.69;99869.50;5067090;28;20101;-79
2022/01/05 04:07:35;;;;;;;13.20;2.20;;;;;;;6.17;63.56;99880.22;5063745;28;20054;-79
2022/01/05 04:10:00;;;;;;;7.22;2.63;;;;;;;5.90;62.82;99888.41;5049511;28;20468;-79
2022/01/05 04:12:26;;;;;;;7.28;2.08;;;;;;;5.63;62.06;99884.53;5066126;28;20033;-79
2022/01/05 04:14:52;;;;;;;8.35;2.08;;;;;;;6.02;62.57;99899.38;5047964;28;20132;-79
2022/01/05 04:17:17;;;;;;;5.95;1.98;;;;;;;5.80;62.30;99892.03;5047777;28;20190;-79
2022/01/05 04:19:43;;;;;;;7.13;2.00;;;;;;;5.96;62.28;99899.47;5070019;28;20083;-79
2022/01/05 04:22:08;;;;;;;5.93;1.90;;;;;;;5.82;61.36;99900.56;5048814;28;20059;-79
2022/01/05 04:24:34;;;;;;;5.78;1.90;;;;;;;5.87;62.39;99903.91;5065474;28;20123;-79
2022/01/05 04:26:59;;;;;;;4.13;1.65;;;;;;;5.97;60.83;99898.59;5064850;28;20033;-79
2022/01/05 04:29:25;;;;;;;5.95;1.90;;;;;;;5.81;61.70;99899.72;5050934;28;20039;-79
2022/01/05 04:31:50;;;;;;;6.50;2.03;;;;;;;5.79;60.35;99904.03;5049928;28;20081;-79
2022/01/05 04:34:16;;;;;;;8.80;2.05;;;;;;;5.70;60.71;99904.19;5049999;28;20051;-79
2022/01/05 04:36:41;;;;;;;8.07;2.08;;;;;;;5.82;60.33;99918.59;5065734;28;20060;-79
2022/01/05 04:39:07;;;;;;;7.43;1.95;;;;;;;5.29;61.57;99920.22;5066598;28;20032;-79
2022/01/05 04:41:32;;;;;;;4.80;1.75;;;;;;;5.77;62.16;99923.00;5047338;28;20496;-79
2022/01/05 04:43:58;;;;;;;10.88;2.20;;;;;;;5.59;61.59;99931.84;5067860;28;20028;-79
2022/01/05 04:46:23;;;;;;;7.53;1.95;;;;;;;5.52;60.96;99929.34;5068047;28;20036;-79
2022/01/05 04:48:49;;;;;;;6.60;1.90;;;;;;;5.47;60.85;99934.59;5068885;28;20044;-79
2022/01/05 04:51:15;;;;;;;5.45;1.85;;;;;;;5.30;63.18;99939.94;5068097;28;20036;-79
2022/01/05 04:53:41;;;;;;;8.70;2.20;;;;;;;5.56;61.03;99936.19;5066862;28;20176;-79
2022/01/05 04:56:06;;;;;;;5.05;1.38;;;;;;;5.39;61.71;99949.25;5062459;28;20127;-79
2022/01/05 04:58:32;;;;;;;8.05;1.50;;;;;;;5.63;60.91;99946.34;5047204;28;20416;-78
2022/01/05 05:00:57;;;;;;;4.78;1.77;;;;;;;5.62;60.61;99946.41;5046246;28;20508;-79
2022/01/05 05:03:23;;;;;;;6.28;1.52;;;;;;;5.50;60.45;99952.56;5072477;28;20094;-79
2022/01/05 05:05:48;;;;;;;7.20;1.55;;;;;;;5.40;60.16;99954.41;5067316;28;20552;-79
2022/01/05 05:08:14;;;;;;;5.97;1.50;;;;;;;5.69;60.55;99955.72;5048951;28;20071;-79
2022/01/05 05:10:39;;;;;;;7.43;2.28;;;;;;;5.50;61.10;99964.59;5063149;28;20397;-79
2022/01/05 05:13:12;;;;;;;9.93;1.98;;;;;;;5.56;60.82;99954.22;5044804;28;20036;-79
2022/01/05 05:15:39;;;;;;;6.70;1.80;;;;;;;5.83;59.23;99962.38;5063887;28;20025;-79
2022/01/05 05:18:05;;;;;;;7.95;1.60;;;;;;;5.59;59.82;99957.59;5058623;28;20049;-79
2022/01/05 05:20:32;;;;;;;5.47;1.80;;;;;;;5.57;60.65;99956.75;5043759;28;20036;-79
2022/01/05 05:22:58;;;;;;;6.80;1.92;;;;;;;5.76;59.21;99960.78;5063235;28;20032;-79
2022/01/05 05:25:23;;;;;;;5.70;1.55;;;;;;;5.36;60.58;99969.91;5048606;28;20032;-79
2022/01/05 05:27:49;;;;;;;3.35;1.60;;;;;;;5.48;59.42;99964.59;5061864;28;20060;-79
2022/01/05 05:30:14;;;;;;;8.43;1.45;;;;;;;5.40;59.43;99979.31;5061516;28;20044;-79
2022/01/05 05:32:40;;;;;;;8.48;2.22;;;;;;;5.44;60.91;99981.81;5062471;28;20094;-79
2022/01/05 05:35:06;;;;;;;5.53;1.50;;;;;;;5.44;61.12;99983.56;5063532;28;20057;-79
2022/01/05 05:37:31;;;;;;;5.28;1.98;;;;;;;5.59;60.17;99985.09;5042164;28;20032;-78
2022/01/05 05:39:58;;;;;;;5.38;1.60;;;;;;;5.66;59.09;99984.09;5064702;28;20114;-79
2022/01/05 05:42:25;;;;;;;6.28;1.80;;;;;;;5.69;60.73;99984.06;5047883;28;20467;-79
2022/01/05 05:44:51;;;;;;;6.32;1.67;;;;;;;5.57;60.55;99990.25;5060942;28;20044;-79
2022/01/05 05:47:17;;;;;;;7.65;1.92;;;;;;;5.40;61.43;100002.50;5063581;28;20555;-79
2022/01/05 05:49:44;;;;;;;6.45;1.48;;;;;;;5.34;61.66;99997.41;5061889;28;20036;-79
2022/01/05 05:52:09;;;;;;;4.45;1.70;;;;;;;5.36;60.20;99998.22;5044357;28;20040;-79
2022/01/05 05:54:35;;;;;;;4.78;1.67;;;;;;;5.50;60.50;100011.81;5059596;28;20043;-79
2022/01/05 05:57:00;;;;;;;8.80;2.10;;;;;;;5.47;57.94;100001.56;5043885;28;20036;-79
2022/01/05 05:59:26;;;;;;;8.27;1.80;;;;;;;5.51;57.85;100003.19;5045933;28;20436;-79
2022/01/05 06:01:51;;;;;;;5.15;1.60;;;;;;;5.39;59.70;100014.50;5061855;28;20032;-79
2022/01/05 06:04:18;;;;;;;7.43;1.35;;;;;;;5.68;58.65;100003.84;5029678;28;20509;-79
2022/01/05 06:06:43;;;;;;;9.82;2.15;;;;;;;5.59;59.44;100011.69;5060976;28;20098;-79
2022/01/05 06:09:08;;;;;;;9.95;1.95;;;;;;;5.50;59.95;100009.25;5042172;28;20409;-79
2022/01/05 06:11:34;;;;;;;4.80;1.45;;;;;;;5.33;60.31;100011.16;5059315;28;20048;-79
2022/01/05 06:13:59;;;;;;;8.82;1.65;;;;;;;5.41;58.06;100017.06;5042194;28;20032;-79
2022/01/05 06:16:25;;;;;;;6.82;1.65;;;;;;;5.07;60.21;100026.03;5046583;28;20496;-79
2022/01/05 06:18:50;;;;;;;6.78;1.45;;;;;;;5.28;59.78;100020.66;5045051;28;20059;-79
2022/01/05 06:21:15;;;;;;;4.60;1.52;;;;;;;5.61;58.39;100022.84;5062575;28;20641;-79
2022/01/05 06:23:41;;;;;;;10.07;2.20;;;;;;;5.51;58.73;100025.53;5060080;28;20404;-79
2022/01/05 06:26:06;;;;;;;3.63;1.38;;;;;;;5.63;58.44;100023.66;5062377;28;20400;-79
2022/01/05 06:28:32;;;;;;;5.45;1.63;;;;;;;5.44;59.31;100025.59;5045012;28;20572;-79
2022/01/05 06:30:57;;;;;;;9.32;1.83;;;;;;;5.57;58.61;100023.72;5059972;28;20045;-79
2022/01/05 06:33:23;;;;;;;4.28;1.45;;;;;;;5.45;58.69;100029.03;5058809;28;20055;-79
2022/01/05 06:35:48;;;;;;;6.15;1.40;;;;;;;5.68;57.33;100032.19;5064277;28;20467;-79
2022/01/05 06:38:14;;;;;;;6.78;1.20;;;;;;;5.46;56.51;100026.44;5061262;28;20074;-79
2022/01/05 06:40:39;;;;;;;4.53;1.50;;;;;;;5.59;58.33;100034.03;5060548;28;20090;-78
2022/01/05 06:43:05;;;;;;;6.13;1.73;;;;;;;5.39;58.63;100029.09;5068458;28;20127;-78
2022/01/05 06:45:30;;;;;;;8.82;1.67;;;;;;;5.16;59.56;100037.09;5044313;28;20048;-79
2022/01/05 06:47:58;;;;;;;3.90;1.48;;;;;;;5.39;58.92;100032.53;5058060;28;20036;-79
2022/01/05 06:50:24;;;;;;;5.47;1.55;;;;;;;5.59;57.69;100037.47;5062259;28;20032;-79
2022/01/05 06:52:50;;;;;;;8.07;2.55;;;;;;;5.52;58.79;100051.28;5057774;28;20029;-75
2022/01/05 06:55:16;;;;;;;8.73;1.75;;;;;;;5.64;57.39;100053.72;5041557;28;20035;-75
2022/01/05 06:57:42;;;;;;;9.65;1.52;;;;;;;5.22;60.21;100067.06;5060088;28;20040;-75
2022/01/05 07:00:12;;;;;;;6.28;1.50;;;;;;;5.34;58.21;100065.22;5059233;28;20051;-75
2022/01/05 07:02:37;;;;;;;3.70;1.38;;;;;;;5.51;57.82;100069.31;5058670;28;20032;-75
2022/01/05 07:05:04;;;;;;;9.15;1.95;;;;;;;5.87;57.43;100071.44;5060974;28;20048;-76
2022/01/05 07:07:30;;;;;;;6.65;1.70;;;;;;;5.65;58.63;100075.19;5057142;28;20463;-75
2022/01/05 07:09:55;;;;;;;9.05;1.55;;;;;;;5.75;57.18;100076.75;5057979;28;20147;-75
2022/01/05 07:12:21;;;;;;;5.18;1.50;;;;;;;5.55;59.54;100081.31;5060648;28;20040;-75
2022/01/05 07:14:46;;;;;;;5.43;1.10;;;;;;;5.70;59.34;100081.97;5064085;28;20029;-76
2022/01/05 07:17:12;;;;;;;6.57;1.50;;;;;;;5.58;57.79;100082.13;5061786;28;20496;-78
2022/01/05 07:19:37;;;;;;;4.20;1.13;;;;;;;5.85;57.04;100086.94;5041153;28;20029;-84
2022/01/05 07:22:03;;;;;;;6.88;1.60;;;;;;;5.73;58.10;100091.38;5063508;28;20045;-83
2022/01/05 07:24:29;;;;;;;9.90;1.45;;;;;;;5.70;57.93;100091.44;5036698;28;20039;-84
2022/01/05 07:26:54;;;;;;;4.93;1.95;;;;;;;5.65;56.95;100096.66;5043373;28;20047;-84
2022/01/05 07:29:20;;;;;;;7.50;2.03;;;;;;;5.65;57.50;100103.53;5063226;28;20040;-83
2022/01/05 07:31:45;;;;;;;7.90;1.45;;;;;;;5.60;60.55;100105.28;5061771;28;20447;-83
2022/01/05 07:34:12;;;;;;;8.00;1.77;;;;;;;5.32;59.46;100115.91;5027683;28;20654;-83
2022/01/05 07:36:38;;;;;;;9.85;2.58;;;;;;;5.54;59.34;100115.66;5062229;28;20521;-84
2022/01/05 07:39:05;;;;;;;8.55;2.03;;;;;;;5.69;58.49;100121.50;5059595;28;20068;-83
2022/01/05 07:41:34;;;;;;;7.13;2.20;;;;;;;5.75;57.19;100112.84;5027173;28;20036;-84
2022/01/05 07:44:00;;;;;;;6.18;1.98;;;;;;;5.77;56.36;100122.25;5061741;28;20078;-84
2022/01/05 07:46:25;;;;;;;7.63;1.52;;;;;;;5.77;58.83;100124.81;5044575;28;20037;-84
2022/01/05 07:48:51;;;;;;;9.15;3.05;;;;;;;5.83;57.65;100131.66;5049276;28;20044;-84
2022/01/05 07:51:16;;;;;;;8.05;1.80;;;;;;;5.66;58.95;100131.84;5040566;28;20543;-84
2022/01/05 07:53:42;;;;;;;8.10;2.65;;;;;;;5.80;58.24;100136.84;5054957;28;20120;-84
2022/01/05 07:56:08;;;;;;;9.75;2.20;;;;;;;6.18;56.52;100133.78;5055381;28;20039;-84
2022/01/05 07:58:35;;;;;;;8.77;1.83;;;;;;;5.96;57.84;100135.78;5041759;28;20544;-84
2022/01/05 08:01:00;;;;;;;12.80;2.78;;;;;;;5.86;60.41;100137.59;5047088;28;20045;-84
2022/01/05 08:03:26;;;;;;;8.40;1.75;;;;;;;5.82;59.07;100140.25;5062147;28;20052;-84
2022/01/05 08:05:51;;;;;;;5.88;2.05;;;;;;;6.01;58.32;100134.84;5052851;28;20040;-83
2022/01/05 08:08:17;;;;;;;10.77;2.47;;;;;;;5.89;57.44;100131.59;5045281;28;21369;-83
2022/01/05 08:10:43;;;;;;;10.07;2.17;;;;;;;5.94;56.61;100124.63;5050769;28;20384;-84
2022/01/05 08:13:08;;;;;;;4.68;2.15;;;;;;;5.85;58.83;100132.47;5057592;28;20189;-84
2022/01/05 08:15:34;;;;;;;10.13;2.38;;;;;;;5.78;58.58;100133.41;5064502;28;20425;-84
2022/01/05 08:17:59;;;;;;;9.70;1.90;;;;;;;5.89;58.40;100141.91;5041372;28;20055;-83
2022/01/05 08:20:25;;;;;;;7.28;2.00;;;;;;;5.93;57.23;100148.69;5044217;28;20505;-83
2022/01/05 08:22:50;;;;;;;5.43;1.60;;;;;;;6.12;56.71;100146.75;5063137;28;20032;-84
2022/01/05 08:25:18;;;;;;;8.70;2.10;;;;;;;5.77;58.45;100150.59;5065679;28;20043;-84
2022/01/05 08:27:47;;;;;;;11.73;2.13;;;;;;;6.01;58.03;100160.63;5062343;28;20093;-83
2022/01/05 08:30:21;;;;;;;7.03;1.80;;;;;;;6.00;58.17;100158.06;5053723;28;20456;-84
2022/01/05 08:32:47;;;;;;;5.28;1.80;;;;;;;6.14;59.17;100165.63;5051353;28;20024;-83
2022/01/05 08:35:15;;;;;;;6.63;2.20;;;;;;;6.21;56.40;100164.69;5032716;28;20632;-83
2022/01/05 08:37:44;;;;;;;5.57;2.13;;;;;;;6.02;56.60;100152.03;5048900;28;20187;-83
2022/01/05 08:40:15;;;;;;;4.03;1.27;;;;;;;6.22;56.01;100156.91;5043792;28;20781;-83
2022/01/05 08:42:41;;;;;;;7.18;2.00;;;;;;;5.93;57.66;100171.91;5049461;28;20054;-84
2022/01/05 08:45:08;;;;;;;12.23;2.22;;;;;;;6.15;57.63;100163.03;5043140;28;20033;-84
2022/01/05 08:47:33;;;;;;;7.32;1.67;;;;;;;6.25;57.42;100167.19;5054103;28;20552;-84
2022/01/05 08:49:59;;;;;;;8.93;1.75;;;;;;;6.23;55.95;100171.53;5042276;28;20029;-83
2022/01/05 08:52:25;;;;;;;8.45;2.13;;;;;;;6.10;57.18;100169.97;5046981;28;20037;-84
2022/01/05 08:54:50;;;;;;;9.63;1.92;;;;;;;6.21;56.57;100175.00;5062811;28;20036;-84
2022/01/05 08:57:16;;;;;;;8.02;1.75;;;;;;;6.13;58.55;100179.41;5048488;28;20128;-83
2022/01/05 08:59:43;;;;;;;9.27;2.03;;;;;;;6.31;56.35;100174.84;5046226;28;20144;-83
2022/01/05 09:02:08;;;;;;;6.30;2.05;;;;;;;6.31;57.36;100181.72;5030684;28;20067;-84
2022/01/05 09:04:34;;;;;;;9.05;1.70;;;;;;;6.39;55.39;100182.50;5046079;28;20074;-84
2022/01/05 09:07:00;;;;;;;5.60;1.55;;;;;;;6.24;55.05;100180.13;5059377;28;20127;-83
2022/01/05 09:09:26;;;;;;;6.22;1.35;;;;;;;6.04;54.79;100183.78;5046355;28;20036;-83
2022/01/05 09:11:51;;;;;;;4.72;1.23;;;;;;;6.16;56.67;100195.69;5047366;28;20127;-83
2022/01/05 09:14:17;;;;;;;7.80;2.33;;;;;;;5.92;56.08;100201.97;5046932;28;20590;-83
2022/01/05 09:16:43;;;;;;;4.57;1.35;;;;;;;6.07;55.33;100195.78;5061588;28;20025;-83
2022/01/05 09:19:08;;;;;;;4.93;1.70;;;;;;;6.15;55.68;100194.00;5061693;28;20047;-83
2022/01/05 09:21:34;;;;;;;8.80;1.63;;;;;;;5.90;56.30;100201.16;5064697;28;20072;-83
2022/01/05 09:23:59;;;;;;;7.30;1.55;;;;;;;6.01;55.82;100207.03;5065562;28;20047;-83
2022/01/05 09:26:25;;;;;;;9.93;1.77;;;;;;;6.23;55.91;100212.78;5061538;28;20040;-83
2022/01/05 09:28:50;;;;;;;7.07;2.25;;;;;;;6.47;55.23;100198.72;5063728;28;20036;-83
2022/01/05 09:31:16;;;;;;;5.82;1.30;;;;;;;6.14;55.43;100199.16;5063151;28;20045;-83
2022/01/05 09:33:41;;;;;;;5.28;1.50;;;;;;;6.11;56.24;100205.22;5061620;28;20609;-83
2022/01/05 09:36:16;;;;;;;8.40;1.27;;;;;;;6.11;55.79;100202.63;5061900;28;20537;-83
2022/01/05 09:44:10;;;;;;;7.22;1.38;;;;;;;5.91;57.74;100222.63;5061042;28;20103;-83
2022/01/05 09:46:39;;;;;;;8.23;1.83;;;;;;;6.12;56.82;100226.69;5064208;28;20044;-83
2022/01/05 09:49:12;;;;;;;6.68;1.63;;;;;;;6.06;57.30;100211.28;5060476;28;20090;-83
2022/01/05 09:51:41;;;;;;;5.85;1.60;;;;;;;6.15;56.82;100217.19;5067290;28;20037;-83
2022/01/05 09:54:09;;;;;;;10.35;2.22;;;;;;;6.29;57.01;100211.88;5061269;28;20081;-83
2022/01/05 09:56:35;;;;;;;6.90;1.63;;;;;;;6.16;56.03;100211.16;5063625;28;20435;-83
2022/01/05 09:59:01;;;;;;;5.72;1.48;;;;;;;6.20;56.24;100219.72;5065668;28;20032;-83
2022/01/05 10:01:32;;;;;;;5.82;1.58;;;;;;;6.25;57.08;100211.03;5042419;28;20060;-84
2022/01/05 10:04:01;;;;;;;9.02;1.63;;;;;;;6.14;55.74;100227.50;5066512;28;20055;-84
2022/01/05 10:06:26;;;;;;;6.50;1.23;;;;;;;6.25;56.43;100217.91;5064886;28;20111;-83
2022/01/05 10:08:52;;;;;;;5.65;1.30;;;;;;;6.33;55.61;100211.81;5063172;28;20588;-83
2022/01/05 10:11:23;;;;;;;9.75;2.13;;;;;;;6.44;56.11;100212.53;5047511;28;20042;-83
2022/01/05 10:13:52;;;;;;;8.10;1.65;;;;;;;6.42;55.72;100221.16;5059653;28;20123;-84
2022/01/05 10:16:18;;;;;;;6.90;1.70;;;;;;;6.47;55.71;100206.47;5061985;28;20521;-83
2022/01/05 10:18:44;;;;;;;6.63;1.42;;;;;;;6.26;57.73;100207.59;5062327;28;20044;-83
2022/01/05 10:21:14;;;;;;;7.20;2.30;;;;;;;6.26;57.14;100214.47;5060961;28;20077;-83
2022/01/05 10:23:48;;;;;;;7.88;1.42;;;;;;;6.34;55.77;100210.06;5053081;28;20502;-83
2022/01/05 10:26:36;;;;;;;10.43;1.63;;;;;;;6.63;55.23;100213.19;5043938;28;20797;-83
2022/01/05 10:29:07;;;;;;;7.10;1.73;;;;;;;6.57;55.47;100205.53;5058521;28;20032;-84
2022/01/05 10:31:37;;;;;;;3.50;1.15;;;;;;;6.35;56.09;100196.31;5044842;28;20155;-83
2022/01/05 10:34:13;;;;;;;5.22;2.15;;;;;;;6.21;56.37;100203.38;5058180;28;20044;-83
2022/01/05 10:37:00;;;;;;;9.43;2.13;;;;;;;6.21;56.09;100218.84;5060465;28;20043;-84
2022/01/05 10:39:28;;;;;;;7.68;1.63;;;;;;;6.31;55.88;100208.38;5028449;28;20041;-83
2022/01/05 10:41:54;;;;;;;4.05;1.17;;;;;;;6.37;56.51;100210.03;5059931;28;20043;-83
2022/01/05 10:44:22;;;;;;;5.18;1.20;;;;;;;6.36;55.66;100216.94;5046167;28;20029;-83
2022/01/05 10:46:53;;;;;;;5.60;1.60;;;;;;;6.53;56.80;100212.44;5063539;28;20568;-83
2022/01/05 10:49:22;;;;;;;6.03;1.48;;;;;;;6.76;54.95;100214.69;5038766;28;20051;-83
2022/01/05 10:51:48;;;;;;;3.67;1.13;;;;;;;6.52;55.72;100236.53;5062892;28;20081;-83
2022/01/05 10:54:22;;;;;;;4.55;1.30;;;;;;;6.44;55.46;100222.00;5044386;28;20536;-83
2022/01/05 10:56:49;;;;;;;7.97;1.20;;;;;;;6.46;56.10;100223.69;5055600;28;20040;-83
2022/01/05 10:59:21;;;;;;;3.78;1.02;;;;;;;6.51;55.88;100231.41;5041230;28;20532;-83
2022/01/05 11:01:46;;;;;;;4.95;1.30;;;;;;;6.29;55.45;100240.22;5045408;28;20523;-84
2022/01/05 11:04:23;;;;;;;6.45;1.92;;;;;;;6.34;56.41;100233.28;5061744;28;20045;-83
2022/01/05 11:07:02;;;;;;;4.43;1.23;;;;;;;6.42;57.05;100239.22;5047708;28;20516;-84
2022/01/05 11:09:27;;;;;;;9.20;1.45;;;;;;;6.63;56.16;100231.25;5060726;28;20075;-83
2022/01/05 11:11:53;;;;;;;4.38;1.55;;;;;;;6.47;56.60;100222.84;5065656;28;20067;-83
2022/01/05 11:14:37;;;;;;;8.52;1.60;;;;;;;6.49;56.01;100233.13;5065386;28;20115;-83
2022/01/05 11:17:05;;;;;;;3.97;1.05;;;;;;;6.50;56.62;100232.25;5059312;28;20024;-83
2022/01/05 11:19:33;;;;;;;5.88;1.48;;;;;;;6.40;56.79;100223.75;5063035;28;20047;-84
2022/01/05 11:22:17;;;;;;;5.97;1.77;;;;;;;6.57;56.98;100232.16;5042122;28;20544;-83
2022/01/05 11:24:49;;;;;;;3.90;1.58;;;;;;;6.63;55.51;100228.66;5060547;28;20575;-83
2022/01/05 11:27:17;;;;;;;7.05;1.60;;;;;;;6.40;58.66;100234.06;5040391;28;20586;-83
2022/01/05 11:29:44;;;;;;;6.88;1.27;;;;;;;6.39;56.07;100239.25;5062909;28;20544;-83
2022/01/05 11:32:12;;;;;;;5.13;1.40;;;;;;;6.65;55.93;100229.50;5060607;28;20162;-83
2022/01/05 11:34:38;;;;;;;7.22;1.40;;;;;;;6.74;55.72;100234.53;5047753;28;20044;-84
2022/01/05 11:37:05;;;;;;;6.30;1.98;;;;;;;6.77;58.08;100231.91;5061636;28;20037;-84
2022/01/05 11:39:33;;;;;;;6.57;2.20;;;;;;;6.62;55.85;100226.09;5058923;28;20128;-84